createdAt,value
2022-07-29T00:01:57.900Z,25.44
2022-07-29T00:04:29.535Z,25.46
2022-07-29T00:06:56.529Z,25.46
2022-07-29T00:09:25.554Z,25.46
2022-07-29T00:11:52.756Z,25.47
2022-07-29T00:14:19.472Z,25.43
2022-07-29T00:16:46.193Z,25.39
2022-07-29T00:19:12.776Z,25.40
2022-07-29T00:21:39.387Z,25.40
2022-07-29T00:24:06.054Z,25.40
2022-07-29T00:26:33.542Z,25.35
2022-07-29T00:29:32.527Z,25.35
2022-07-29T00:31:49.966Z,25.36
2022-07-29T00:34:37.742Z,25.34
2022-07-29T00:37:09.340Z,25.34
2022-07-29T00:39:35.996Z,25.33
2022-07-29T00:42:08.647Z,25.30
2022-07-29T00:44:39.129Z,25.23
2022-07-29T00:47:10.115Z,25.19
2022-07-29T00:49:37.546Z,25.19
2022-07-29T00:52:07.284Z,25.18
2022-07-29T00:54:34.461Z,25.18
2022-07-29T00:57:03.924Z,25.17
2022-07-29T00:59:34.792Z,25.17
2022-07-29T01:02:02.179Z,25.15
2022-07-29T01:04:30.636Z,25.14
2022-07-29T01:06:57.476Z,25.13
2022-07-29T01:09:37.292Z,25.14
2022-07-29T01:12:22.740Z,25.15
2022-07-29T01:14:49.355Z,25.14
2022-07-29T01:17:18.715Z,25.14
2022-07-29T01:20:06.936Z,25.15
2022-07-29T01:22:35.751Z,25.15
2022-07-29T01:25:11.408Z,25.11
2022-07-29T01:27:56.760Z,25.05
2022-07-29T01:30:23.726Z,25.02
2022-07-29T01:32:54.507Z,25.02
2022-07-29T01:35:24.846Z,25.04
2022-07-29T01:37:55.909Z,25.05
2022-07-29T01:40:28.077Z,25.05
2022-07-29T01:42:58.506Z,25.04
2022-07-29T01:45:38.506Z,25.00
2022-07-29T01:48:07.367Z,24.98
2022-07-29T01:50:35.896Z,24.97
2022-07-29T01:53:03.773Z,24.91
2022-07-29T01:55:33.341Z,24.84
2022-07-29T01:57:59.980Z,24.80
2022-07-29T02:00:26.754Z,24.80
2022-07-29T02:02:53.731Z,24.78
2022-07-29T02:05:20.434Z,24.76
2022-07-29T02:07:47.615Z,24.74
2022-07-29T02:10:14.618Z,24.71
2022-07-29T02:12:49.872Z,24.68
2022-07-29T02:15:19.877Z,24.63
2022-07-29T02:17:56.494Z,24.63
2022-07-29T02:20:25.990Z,24.62
2022-07-29T02:22:52.628Z,24.61
2022-07-29T02:25:19.260Z,24.62
2022-07-29T02:27:48.932Z,24.63
2022-07-29T02:30:15.480Z,24.63
2022-07-29T02:32:42.556Z,24.62
2022-07-29T02:35:09.765Z,24.60
2022-07-29T02:37:36.836Z,24.58
2022-07-29T02:40:06.010Z,24.55
2022-07-29T02:42:32.568Z,24.51
2022-07-29T02:44:59.828Z,24.48
2022-07-29T02:47:42.048Z,24.45
2022-07-29T02:50:09.407Z,24.45
2022-07-29T02:52:36.464Z,24.41
2022-07-29T02:55:05.932Z,24.40
2022-07-29T02:57:54.604Z,24.37
2022-07-29T03:00:25.213Z,24.34
2022-07-29T03:02:52.336Z,24.29
2022-07-29T03:05:19.926Z,24.25
2022-07-29T03:07:47.255Z,24.18
2022-07-29T03:10:14.916Z,24.16
2022-07-29T03:12:41.475Z,24.15
2022-07-29T03:15:10.594Z,24.14
2022-07-29T03:17:37.447Z,24.11
2022-07-29T03:20:04.122Z,24.09
2022-07-29T03:22:30.709Z,24.07
2022-07-29T03:24:57.546Z,24.05
2022-07-29T03:27:26.505Z,24.03
2022-07-29T03:29:55.819Z,24.02
2022-07-29T03:32:24.056Z,24.02
2022-07-29T03:34:52.616Z,24.01
2022-07-29T03:37:21.520Z,23.97
2022-07-29T03:39:48.173Z,23.95
2022-07-29T03:42:15.101Z,23.94
2022-07-29T03:44:42.248Z,23.91
2022-07-29T03:47:08.785Z,23.90
2022-07-29T03:49:38.127Z,23.89
2022-07-29T03:52:07.290Z,23.89
2022-07-29T03:54:33.884Z,23.86
2022-07-29T03:57:03.299Z,23.86
2022-07-29T03:59:29.950Z,23.84
2022-07-29T04:01:56.701Z,23.79
2022-07-29T04:04:23.619Z,23.79
2022-07-29T04:06:50.564Z,23.81
2022-07-29T04:09:17.138Z,23.82
2022-07-29T04:12:02.035Z,23.82
2022-07-29T04:14:30.557Z,23.83
2022-07-29T04:16:59.639Z,23.84
2022-07-29T04:19:26.318Z,23.84
2022-07-29T04:21:55.333Z,23.84
2022-07-29T04:24:22.100Z,23.84
2022-07-29T04:26:49.209Z,23.85
2022-07-29T04:29:18.166Z,23.88
2022-07-29T04:31:48.020Z,23.89
2022-07-29T04:34:14.903Z,23.90
2022-07-29T04:36:41.872Z,23.92
2022-07-29T04:39:09.040Z,23.99
2022-07-29T04:41:35.632Z,24.04
2022-07-29T04:44:07.034Z,24.07
2022-07-29T04:46:34.302Z,24.11
2022-07-29T04:49:00.956Z,24.17
2022-07-29T04:51:27.610Z,24.17
2022-07-29T04:53:56.808Z,24.20
2022-07-29T04:56:23.729Z,24.20
2022-07-29T04:58:53.271Z,24.20
2022-07-29T05:01:26.242Z,24.22
2022-07-29T05:03:57.010Z,24.26
2022-07-29T05:06:26.541Z,24.29
2022-07-29T05:08:55.552Z,24.33
2022-07-29T05:11:24.975Z,24.36
2022-07-29T05:13:53.971Z,24.32
2022-07-29T05:16:20.567Z,24.35
2022-07-29T05:18:47.240Z,24.37
2022-07-29T05:21:14.084Z,24.40
2022-07-29T05:23:41.120Z,24.46
2022-07-29T05:26:07.745Z,24.44
2022-07-29T05:28:35.802Z,24.44
2022-07-29T05:31:04.846Z,24.47
2022-07-29T05:33:35.399Z,24.50
2022-07-29T05:36:12.077Z,24.52
2022-07-29T05:38:41.359Z,24.54
2022-07-29T05:41:08.815Z,24.56
2022-07-29T05:43:35.315Z,24.59
2022-07-29T05:46:02.392Z,24.58
2022-07-29T05:48:29.065Z,24.58
2022-07-29T05:50:55.754Z,24.63
2022-07-29T05:53:25.071Z,24.70
2022-07-29T05:55:52.671Z,24.75
2022-07-29T05:58:19.282Z,24.74
2022-07-29T06:00:45.928Z,24.79
2022-07-29T06:03:15.660Z,24.83
2022-07-29T06:05:42.367Z,24.79
2022-07-29T06:08:11.512Z,24.81
2022-07-29T06:10:38.545Z,24.88
2022-07-29T06:13:08.177Z,24.94
2022-07-29T06:15:39.851Z,25.01
2022-07-29T06:18:10.099Z,25.03
2022-07-29T06:20:39.965Z,25.01
2022-07-29T06:23:10.871Z,25.05
2022-07-29T06:25:38.724Z,25.08
2022-07-29T06:28:05.496Z,25.16
2022-07-29T06:30:34.485Z,25.22
2022-07-29T06:33:02.974Z,25.27
2022-07-29T06:35:38.537Z,25.30
2022-07-29T06:38:30.653Z,25.36
2022-07-29T06:41:01.809Z,25.44
2022-07-29T06:43:32.418Z,25.51
2022-07-29T06:46:05.525Z,25.57
2022-07-29T06:48:32.467Z,25.65
2022-07-29T06:50:59.157Z,25.73
2022-07-29T06:53:26.359Z,25.83
2022-07-29T06:55:53.290Z,25.96
2022-07-29T06:58:22.572Z,26.02
2022-07-29T07:00:55.492Z,26.17
2022-07-29T07:03:22.284Z,26.24
2022-07-29T07:05:49.038Z,26.40
2022-07-29T07:08:17.102Z,26.49
2022-07-29T07:10:46.131Z,26.57
2022-07-29T07:13:12.744Z,26.66
2022-07-29T07:15:40.265Z,26.75
2022-07-29T07:18:07.795Z,26.86
2022-07-29T07:20:35.095Z,26.95
2022-07-29T07:23:04.141Z,27.05
2022-07-29T07:25:30.948Z,27.12
2022-07-29T07:28:02.596Z,27.15
2022-07-29T07:30:29.237Z,27.12
2022-07-29T07:32:56.382Z,27.12
2022-07-29T07:35:23.026Z,27.12
2022-07-29T07:37:53.760Z,27.19
2022-07-29T07:40:24.200Z,27.20
2022-07-29T07:42:53.266Z,27.20
2022-07-29T07:45:20.031Z,27.21
2022-07-29T07:47:46.603Z,27.25
2022-07-29T07:50:21.233Z,27.25
2022-07-29T07:52:51.829Z,27.31
2022-07-29T07:55:18.607Z,27.36
2022-07-29T07:57:45.670Z,27.43
2022-07-29T08:00:13.365Z,27.55
2022-07-29T08:02:40.549Z,27.60
2022-07-29T08:05:08.432Z,27.67
2022-07-29T08:07:39.490Z,27.65
2022-07-29T08:10:08.762Z,27.60
2022-07-29T08:12:35.533Z,27.66
2022-07-29T08:15:02.306Z,27.78
2022-07-29T08:17:29.321Z,27.92
2022-07-29T08:19:56.105Z,28.08
2022-07-29T08:22:22.808Z,28.25
2022-07-29T08:24:57.205Z,28.42
2022-07-29T08:27:44.764Z,28.52
2022-07-29T08:30:14.716Z,28.65
2022-07-29T08:32:53.787Z,28.75
2022-07-29T08:35:22.160Z,28.88
2022-07-29T08:37:51.621Z,29.00
2022-07-29T08:40:18.326Z,29.14
2022-07-29T08:42:47.283Z,29.25
2022-07-29T08:45:13.866Z,29.35
2022-07-29T08:47:40.901Z,29.39
2022-07-29T08:50:09.014Z,29.47
2022-07-29T08:52:40.137Z,29.55
2022-07-29T08:55:07.624Z,29.61
2022-07-29T08:57:34.947Z,29.65
2022-07-29T09:00:08.092Z,29.64
2022-07-29T09:02:46.925Z,29.67
2022-07-29T09:05:14.942Z,29.80
2022-07-29T09:07:44.277Z,29.94
2022-07-29T09:10:13.532Z,30.11
2022-07-29T09:12:42.527Z,30.23
2022-07-29T09:15:09.524Z,30.36
2022-07-29T09:17:43.131Z,30.51
2022-07-29T09:20:10.833Z,30.63
2022-07-29T09:22:41.829Z,30.71
2022-07-29T09:25:09.668Z,30.79
2022-07-29T09:27:36.668Z,30.86
2022-07-29T09:30:11.529Z,30.98
2022-07-29T09:33:01.889Z,31.08
2022-07-29T09:35:29.010Z,31.21
2022-07-29T09:37:55.854Z,31.24
2022-07-29T09:40:26.647Z,31.35
2022-07-29T09:42:57.938Z,31.51
2022-07-29T09:45:27.747Z,31.65
2022-07-29T09:47:55.128Z,31.82
2022-07-29T09:50:25.274Z,31.95
2022-07-29T09:52:53.024Z,32.08
2022-07-29T09:55:22.105Z,32.16
2022-07-29T09:57:49.361Z,32.22
2022-07-29T10:00:17.123Z,32.33
2022-07-29T10:02:47.657Z,32.50
2022-07-29T10:05:19.893Z,32.64
2022-07-29T10:07:53.219Z,32.77
2022-07-29T10:10:22.041Z,32.90
2022-07-29T10:12:51.709Z,32.94
2022-07-29T10:15:18.587Z,32.76
2022-07-29T10:17:46.007Z,32.74
2022-07-29T10:20:16.586Z,32.92
2022-07-29T10:22:53.493Z,33.18
2022-07-29T10:25:21.225Z,33.45
2022-07-29T10:27:48.536Z,33.58
2022-07-29T10:30:15.803Z,33.44
2022-07-29T10:33:01.354Z,33.18
2022-07-29T10:35:40.110Z,32.99
2022-07-29T10:38:18.712Z,32.76
2022-07-29T10:41:06.645Z,32.89
2022-07-29T10:43:39.210Z,33.13
2022-07-29T10:46:09.100Z,33.43
2022-07-29T10:48:41.232Z,33.83
2022-07-29T10:51:10.428Z,34.16
2022-07-29T10:53:48.547Z,34.26
2022-07-29T10:56:33.470Z,34.24
2022-07-29T10:59:18.793Z,34.10
2022-07-29T11:01:50.271Z,33.91
2022-07-29T11:04:39.568Z,33.64
2022-07-29T11:07:06.171Z,33.93
2022-07-29T11:09:37.786Z,34.36
2022-07-29T11:12:25.944Z,34.65
2022-07-29T11:14:53.327Z,35.04
2022-07-29T11:17:20.428Z,35.45
2022-07-29T11:19:51.922Z,35.74
2022-07-29T11:22:37.163Z,35.96
2022-07-29T11:25:16.796Z,36.31
2022-07-29T11:27:44.533Z,36.66
2022-07-29T11:30:13.221Z,36.96
2022-07-29T11:32:48.731Z,37.16
2022-07-29T11:38:21.064Z,37.44
2022-07-29T11:41:07.919Z,37.74
2022-07-29T11:44:09.014Z,38.10
2022-07-29T11:46:51.321Z,38.05
2022-07-29T11:49:32.035Z,38.06
2022-07-29T11:52:02.547Z,38.41
2022-07-29T11:54:38.736Z,38.79
2022-07-29T11:57:21.297Z,39.11
2022-07-29T11:59:48.649Z,39.50
2022-07-29T12:02:36.507Z,39.44
2022-07-29T12:05:10.869Z,39.75
2022-07-29T12:07:01.567Z,37.19
2022-07-29T12:07:38.500Z,40.15
2022-07-29T12:10:11.481Z,39.99
2022-07-29T12:12:51.951Z,40.25
2022-07-29T12:15:21.507Z,40.63
2022-07-29T12:17:49.702Z,41.01
2022-07-29T12:20:23.847Z,41.15
2022-07-29T12:22:54.655Z,40.75
2022-07-29T12:25:37.233Z,40.15
2022-07-29T12:28:05.512Z,39.89
2022-07-29T12:30:47.061Z,40.46
2022-07-29T12:33:18.651Z,41.07
2022-07-29T12:35:54.067Z,41.24
2022-07-29T12:38:32.825Z,41.10
2022-07-29T12:40:59.501Z,41.37
2022-07-29T12:43:28.572Z,42.08
2022-07-29T12:45:56.053Z,42.80
2022-07-29T12:48:34.884Z,42.94
2022-07-29T12:51:02.435Z,42.91
2022-07-29T12:53:33.655Z,42.48
2022-07-29T12:56:20.634Z,42.87
2022-07-29T12:58:54.990Z,43.55
2022-07-29T13:01:23.924Z,43.60
2022-07-29T13:04:01.861Z,44.22
2022-07-29T13:06:32.884Z,44.35
2022-07-29T13:09:09.104Z,44.10
2022-07-29T13:11:36.728Z,43.54
2022-07-29T13:14:06.633Z,42.86
2022-07-29T13:16:36.420Z,43.93
2022-07-29T13:19:11.473Z,44.62
2022-07-29T13:21:39.171Z,45.48
2022-07-29T13:24:09.585Z,46.54
2022-07-29T13:26:36.214Z,47.58
2022-07-29T13:29:07.322Z,47.68
2022-07-29T13:31:34.114Z,47.41
2022-07-29T13:34:00.737Z,47.24
2022-07-29T13:36:32.989Z,46.24
2022-07-29T13:38:59.655Z,45.02
2022-07-29T13:41:29.271Z,44.54
2022-07-29T13:43:58.830Z,45.43
2022-07-29T13:46:25.525Z,45.67
2022-07-29T13:48:52.902Z,45.92
2022-07-29T13:51:22.052Z,45.86
2022-07-29T13:53:48.798Z,46.68
2022-07-29T13:56:15.431Z,47.07
2022-07-29T13:58:44.999Z,47.43
2022-07-29T14:01:12.069Z,47.72
2022-07-29T14:03:42.212Z,47.64
2022-07-29T14:06:18.245Z,47.52
2022-07-29T14:08:45.603Z,47.56
2022-07-29T14:11:14.802Z,47.70
2022-07-29T14:13:41.580Z,47.30
2022-07-29T14:16:08.783Z,46.14
2022-07-29T14:18:37.789Z,45.08
2022-07-29T14:21:07.555Z,44.36
2022-07-29T14:23:34.892Z,45.02
2022-07-29T14:26:04.261Z,45.99
2022-07-29T14:28:38.970Z,46.82
2022-07-29T14:31:08.569Z,47.61
2022-07-29T14:33:35.794Z,48.41
2022-07-29T14:36:02.952Z,48.58
2022-07-29T14:38:29.614Z,48.75
2022-07-29T14:40:56.270Z,48.55
2022-07-29T14:43:23.012Z,48.32
2022-07-29T14:45:50.042Z,47.91
2022-07-29T14:48:16.629Z,47.61
2022-07-29T14:50:43.384Z,47.71
2022-07-29T14:53:10.052Z,48.18
2022-07-29T14:55:36.735Z,49.12
2022-07-29T14:58:10.902Z,48.67
2022-07-29T15:00:38.818Z,48.06
2022-07-29T15:03:05.725Z,48.24
2022-07-29T15:05:35.950Z,48.45
2022-07-29T15:08:05.455Z,48.39
2022-07-29T15:10:35.316Z,48.96
2022-07-29T15:13:01.939Z,49.34
2022-07-29T15:15:28.506Z,48.66
2022-07-29T15:17:57.887Z,47.67
2022-07-29T15:20:28.140Z,47.80
2022-07-29T15:22:56.508Z,47.30
2022-07-29T15:25:26.336Z,47.36
2022-07-29T15:28:00.577Z,47.73
2022-07-29T15:30:33.923Z,47.91
2022-07-29T15:33:03.940Z,47.77
2022-07-29T15:35:31.325Z,47.57
2022-07-29T15:37:57.987Z,47.54
2022-07-29T15:40:25.032Z,47.44
2022-07-29T15:42:51.747Z,47.44
2022-07-29T15:45:20.901Z,47.05
2022-07-29T15:47:47.482Z,46.48
2022-07-29T15:50:17.193Z,45.70
2022-07-29T15:52:43.828Z,44.66
2022-07-29T15:55:16.401Z,43.76
2022-07-29T15:57:47.990Z,42.75
2022-07-29T16:00:17.962Z,41.78
2022-07-29T16:02:46.989Z,40.96
2022-07-29T16:05:18.239Z,39.87
2022-07-29T16:07:44.854Z,39.14
2022-07-29T16:10:13.974Z,38.76
2022-07-29T16:12:43.040Z,38.72
2022-07-29T16:15:12.089Z,38.30
2022-07-29T16:17:41.923Z,38.22
2022-07-29T16:20:08.703Z,38.12
2022-07-29T16:22:35.402Z,37.75
2022-07-29T16:25:01.988Z,37.53
2022-07-29T16:27:35.602Z,37.18
2022-07-29T16:30:07.466Z,36.88
2022-07-29T16:32:34.691Z,36.79
2022-07-29T16:35:02.829Z,36.67
2022-07-29T16:37:39.191Z,36.53
2022-07-29T16:40:11.510Z,36.33
2022-07-29T16:42:47.256Z,36.31
2022-07-29T16:45:14.981Z,36.19
2022-07-29T16:47:42.108Z,36.02
2022-07-29T16:50:08.739Z,35.80
2022-07-29T16:52:36.058Z,35.59
2022-07-29T16:55:02.657Z,35.55
2022-07-29T16:57:29.223Z,35.46
2022-07-29T16:59:55.902Z,35.38
2022-07-29T17:02:22.557Z,35.21
2022-07-29T17:04:49.139Z,35.10
2022-07-29T17:07:16.084Z,35.00
2022-07-29T17:09:45.011Z,34.96
2022-07-29T17:12:19.518Z,34.84
2022-07-29T17:14:46.720Z,34.70
2022-07-29T17:17:13.719Z,34.47
2022-07-29T17:19:44.490Z,34.27
2022-07-29T17:22:17.226Z,34.14
2022-07-29T17:24:45.629Z,33.90
2022-07-29T17:27:12.561Z,33.88
2022-07-29T17:29:39.347Z,33.85
2022-07-29T17:32:07.753Z,33.84
2022-07-29T17:34:37.501Z,33.76
2022-07-29T17:37:07.455Z,33.66
2022-07-29T17:39:36.551Z,33.60
2022-07-29T17:42:03.976Z,33.52
2022-07-29T17:44:36.326Z,33.42
2022-07-29T17:47:03.836Z,33.33
2022-07-29T17:49:36.285Z,33.23
2022-07-29T17:52:04.115Z,33.20
2022-07-29T17:54:35.605Z,33.17
2022-07-29T17:57:04.403Z,33.06
2022-07-29T17:59:31.028Z,33.01
2022-07-29T18:02:01.672Z,32.92
2022-07-29T18:04:31.581Z,32.85
2022-07-29T18:06:58.545Z,32.79
2022-07-29T18:09:28.951Z,32.72
2022-07-29T18:11:55.968Z,32.61
2022-07-29T18:14:22.862Z,32.51
2022-07-29T18:16:49.548Z,32.45
2022-07-29T18:19:16.242Z,32.34
2022-07-29T18:21:51.212Z,32.27
2022-07-29T18:24:27.491Z,32.21
2022-07-29T18:26:54.157Z,32.15
2022-07-29T18:29:20.824Z,32.06
2022-07-29T18:31:47.423Z,31.97
2022-07-29T18:34:14.546Z,31.88
2022-07-29T18:36:41.188Z,31.80
2022-07-29T18:39:07.804Z,31.75
2022-07-29T18:41:46.036Z,31.71
2022-07-29T18:44:21.950Z,31.62
2022-07-29T18:46:49.654Z,31.59
2022-07-29T18:49:16.338Z,31.54
2022-07-29T18:51:45.432Z,31.48
2022-07-29T18:54:14.467Z,31.38
2022-07-29T18:56:41.230Z,31.30
2022-07-29T18:59:10.609Z,31.29
2022-07-29T19:01:39.837Z,31.23
2022-07-29T19:04:06.856Z,31.15
2022-07-29T19:06:34.243Z,31.07
2022-07-29T19:09:01.047Z,30.99
2022-07-29T19:11:27.617Z,30.88
2022-07-29T19:13:54.344Z,30.79
2022-07-29T19:16:21.176Z,30.73
2022-07-29T19:18:47.840Z,30.69
2022-07-29T19:21:14.430Z,30.64
2022-07-29T19:24:01.758Z,30.56
2022-07-29T19:26:29.420Z,30.49
2022-07-29T19:29:00.611Z,30.38
2022-07-29T19:31:29.642Z,30.31
2022-07-29T19:33:56.545Z,30.20
2022-07-29T19:36:23.406Z,30.16
2022-07-29T19:38:50.744Z,30.12
2022-07-29T19:41:17.311Z,30.05
2022-07-29T19:43:50.504Z,29.98
2022-07-29T19:46:19.873Z,29.93
2022-07-29T19:48:48.983Z,29.87
2022-07-29T19:51:16.277Z,29.76
2022-07-29T19:53:45.222Z,29.68
2022-07-29T19:56:14.460Z,29.54
2022-07-29T19:58:41.846Z,29.46
2022-07-29T20:01:10.757Z,29.40
2022-07-29T20:03:40.190Z,29.34
2022-07-29T20:06:07.852Z,29.26
2022-07-29T20:08:34.774Z,29.19
2022-07-29T20:11:04.055Z,29.08
2022-07-29T20:13:33.066Z,29.01
2022-07-29T20:16:00.170Z,28.94
2022-07-29T20:18:27.451Z,28.83
2022-07-29T20:20:57.717Z,28.72
2022-07-29T20:23:27.779Z,28.68
2022-07-29T20:25:59.923Z,28.65
2022-07-29T20:28:27.169Z,28.63
2022-07-29T20:30:54.333Z,28.57
2022-07-29T20:33:24.267Z,28.54
2022-07-29T20:35:53.794Z,28.47
2022-07-29T20:38:22.624Z,28.35
2022-07-29T20:40:50.719Z,28.30
2022-07-29T20:43:17.344Z,28.28
2022-07-29T20:45:44.066Z,28.20
2022-07-29T20:48:13.908Z,28.13
2022-07-29T20:50:41.045Z,28.06
2022-07-29T20:53:08.149Z,28.02
2022-07-29T20:55:34.796Z,27.99
2022-07-29T20:58:01.853Z,28.00
2022-07-29T21:00:28.817Z,28.01
2022-07-29T21:02:55.389Z,28.07
2022-07-29T21:05:24.343Z,28.10
2022-07-29T21:07:54.306Z,28.11
2022-07-29T21:10:23.306Z,28.04
2022-07-29T21:12:52.098Z,28.01
2022-07-29T21:15:20.786Z,27.97
2022-07-29T21:17:47.690Z,27.89
2022-07-29T21:20:18.100Z,27.85
2022-07-29T21:22:45.021Z,27.73
2022-07-29T21:25:12.135Z,27.58
2022-07-29T21:27:57.248Z,27.44
2022-07-29T21:30:26.662Z,27.42
2022-07-29T21:32:53.220Z,27.41
2022-07-29T21:36:01.765Z,27.34
2022-07-29T21:38:06.854Z,27.30
2022-07-29T21:40:33.492Z,27.25
2022-07-29T21:43:00.486Z,27.21
2022-07-29T21:45:29.922Z,27.14
2022-07-29T21:47:59.220Z,27.04
2022-07-29T21:50:26.136Z,27.03
2022-07-29T21:52:53.510Z,26.99
2022-07-29T21:55:22.469Z,26.97
2022-07-29T21:57:51.441Z,26.91
2022-07-29T22:00:21.216Z,26.85
2022-07-29T22:02:51.392Z,26.78
2022-07-29T22:05:17.942Z,26.77
2022-07-29T22:07:56.148Z,26.74
2022-07-29T22:10:24.189Z,26.68
2022-07-29T22:12:52.029Z,26.63
2022-07-29T22:15:18.759Z,26.61
2022-07-29T22:17:45.817Z,26.59
2022-07-29T22:20:14.909Z,26.57
2022-07-29T22:22:41.484Z,26.56
2022-07-29T22:25:10.714Z,26.48
2022-07-29T22:27:37.467Z,26.44
2022-07-29T22:30:09.930Z,26.44
2022-07-29T22:32:36.994Z,26.36
2022-07-29T22:35:03.912Z,26.33
2022-07-29T22:37:30.494Z,26.32
2022-07-29T22:39:57.114Z,26.31
2022-07-29T22:42:26.651Z,26.28
2022-07-29T22:44:56.038Z,26.27
2022-07-29T22:47:46.133Z,26.25
2022-07-29T22:50:13.172Z,26.20
2022-07-29T22:52:39.771Z,26.17
2022-07-29T22:55:08.813Z,26.16
2022-07-29T22:57:35.611Z,26.14
2022-07-29T23:00:02.443Z,26.09
2022-07-29T23:02:31.974Z,26.05
2022-07-29T23:04:59.021Z,26.02
2022-07-29T23:07:26.067Z,26.00
2022-07-29T23:09:52.670Z,25.96
2022-07-29T23:12:19.179Z,25.92
2022-07-29T23:14:45.994Z,25.91
2022-07-29T23:17:15.124Z,25.85
2022-07-29T23:19:41.789Z,25.83
2022-07-29T23:22:08.409Z,25.81
2022-07-29T23:24:39.855Z,25.79
2022-07-29T23:27:07.533Z,25.77
2022-07-29T23:29:37.085Z,25.74
2022-07-29T23:32:06.143Z,25.69
2022-07-29T23:34:32.803Z,25.65
2022-07-29T23:37:01.844Z,25.61
2022-07-29T23:39:32.018Z,25.58
2022-07-29T23:41:58.600Z,25.47
2022-07-29T23:44:25.283Z,25.45
2022-07-29T23:46:51.918Z,25.40
2022-07-29T23:49:21.556Z,25.39
2022-07-29T23:51:50.490Z,25.34
2022-07-29T23:54:17.457Z,25.31
2022-07-29T23:56:46.474Z,25.30
2022-07-29T23:59:15.764Z,25.28
